Time;durP1;ratioP1;P1;durP2;ratioP2;P2;SDS_P1;SDS_P2;PMS_P1;PMS_P2;Temp;Humidity;BMP_temperature;BMP_pressure;BME280_temperature;BME280_humidity;BME280_pressure;Samples;Min_cycle;Max_cycle;Signal;HPM_P1;HPM_P2
2023/11/21 00:02:23;;;;;;;5.80;3.37;;;4.80;97.40;;;;;;5049475;28;20222;-73
2023/11/21 00:04:50;;;;;;;4.63;3.13;;;4.80;97.40;;;;;;5070168;28;20562;-74
2023/11/21 00:07:17;;;;;;;5.00;3.20;;;4.80;97.40;;;;;;5070549;28;20210;-74
2023/11/21 00:09:46;;;;;;;3.97;3.00;;;4.90;97.20;;;;;;5047052;28;20225;-74
2023/11/21 00:12:13;;;;;;;4.90;3.23;;;4.90;97.10;;;;;;5068952;28;20198;-75
2023/11/21 00:14:41;;;;;;;4.13;3.50;;;4.90;96.70;;;;;;5052041;28;20193;-74
2023/11/21 00:17:08;;;;;;;4.20;3.00;;;4.90;96.20;;;;;;5066560;28;20210;-74
2023/11/21 00:19:35;;;;;;;3.87;3.33;;;4.90;96.30;;;;;;5070694;28;20191;-74
2023/11/21 00:22:02;;;;;;;3.20;2.83;;;4.90;96.30;;;;;;5066901;28;20241;-74
2023/11/21 00:24:29;;;;;;;4.83;2.90;;;4.90;96.30;;;;;;5068456;28;20795;-73
2023/11/21 00:26:58;;;;;;;4.43;3.33;;;4.90;95.80;;;;;;5069495;28;20224;-74
2023/11/21 00:29:25;;;;;;;4.43;3.60;;;4.90;95.70;;;;;;5064717;28;20660;-74
2023/11/21 00:31:52;;;;;;;5.03;3.77;;;4.90;95.30;;;;;;5069629;28;20209;-74
2023/11/21 00:34:19;;;;;;;3.57;3.10;;;4.90;94.90;;;;;;5053679;28;20193;-74
2023/11/21 00:36:47;;;;;;;3.73;2.83;;;4.80;94.70;;;;;;5066255;28;20259;-74
2023/11/21 00:39:14;;;;;;;5.10;3.03;;;4.80;94.70;;;;;;5049879;28;20281;-74
2023/11/21 00:41:41;;;;;;;6.23;3.37;;;4.70;93.70;;;;;;5068610;28;20197;-74
2023/11/21 00:44:10;;;;;;;3.17;2.87;;;4.70;92.80;;;;;;5050946;28;20244;-74
2023/11/21 00:46:37;;;;;;;3.77;2.50;;;4.70;93.10;;;;;;5076048;28;20688;-75
2023/11/21 00:49:05;;;;;;;2.40;2.10;;;4.70;93.50;;;;;;5076168;28;20250;-75
2023/11/21 00:51:32;;;;;;;2.63;1.80;;;4.70;93.70;;;;;;5068046;28;20190;-75
2023/11/21 00:54:00;;;;;;;2.30;2.07;;;4.70;94.00;;;;;;5057514;28;20194;-75
2023/11/21 00:56:27;;;;;;;2.17;1.97;;;4.70;94.20;;;;;;5055811;28;20213;-75
2023/11/21 00:58:54;;;;;;;2.37;2.17;;;4.70;94.30;;;;;;5074307;28;20197;-74
2023/11/21 01:01:24;;;;;;;2.63;2.40;;;4.70;94.20;;;;;;5058044;28;20197;-74
2023/11/21 01:03:51;;;;;;;4.00;2.73;;;4.70;94.10;;;;;;5057228;28;20599;-72
2023/11/21 01:06:19;;;;;;;6.33;3.30;;;4.80;94.00;;;;;;5055624;28;20204;-72
2023/11/21 01:08:46;;;;;;;3.70;3.03;;;4.80;93.50;;;;;;5076036;28;20640;-73
2023/11/21 01:11:13;;;;;;;8.30;3.40;;;4.70;93.50;;;;;;5072180;28;20236;-72
2023/11/21 01:13:42;;;;;;;4.00;3.00;;;4.70;93.20;;;;;;5066603;28;20189;-71
2023/11/21 01:16:09;;;;;;;3.73;2.67;;;4.70;93.20;;;;;;5074751;28;20360;-71
2023/11/21 01:18:38;;;;;;;4.40;2.93;;;4.70;93.40;;;;;;5072737;28;20189;-73
2023/11/21 01:21:07;;;;;;;2.60;2.40;;;4.70;93.20;;;;;;5075483;28;20225;-74
2023/11/21 01:23:34;;;;;;;5.13;2.80;;;4.70;93.40;;;;;;5075604;28;20325;-75
2023/11/21 01:26:02;;;;;;;3.30;2.77;;;4.70;93.30;;;;;;5073200;28;20202;-73
2023/11/21 01:28:30;;;;;;;3.13;2.37;;;4.70;93.30;;;;;;5053636;28;20205;-73
2023/11/21 01:30:58;;;;;;;3.77;2.43;;;4.70;93.30;;;;;;5054787;28;20305;-73
2023/11/21 01:33:25;;;;;;;2.53;2.30;;;4.70;93.30;;;;;;5071643;28;20185;-73
2023/11/21 01:35:54;;;;;;;4.87;2.77;;;4.70;93.10;;;;;;5056293;28;20208;-73
2023/11/21 01:38:21;;;;;;;4.43;2.80;;;4.70;92.80;;;;;;5075019;28;20186;-73
2023/11/21 01:40:49;;;;;;;3.93;2.90;;;4.70;92.70;;;;;;5051598;28;20268;-72
2023/11/21 01:43:16;;;;;;;2.77;2.57;;;4.80;92.80;;;;;;5075569;28;20313;-72
2023/11/21 01:45:45;;;;;;;3.80;2.90;;;4.80;92.50;;;;;;5076203;28;20243;-73
2023/11/21 01:48:13;;;;;;;3.07;2.53;;;4.80;92.60;;;;;;5055282;28;20210;-73
2023/11/21 01:50:41;;;;;;;4.63;2.50;;;4.80;92.50;;;;;;5072461;28;20222;-72
2023/11/21 01:53:14;;;;;;;3.77;3.03;;;4.80;92.50;;;;;;5072221;28;20282;-72
2023/11/21 01:55:42;;;;;;;3.87;2.83;;;4.80;92.20;;;;;;5074044;28;20217;-73
2023/11/21 01:58:11;;;;;;;2.77;2.30;;;4.70;92.00;;;;;;5053894;28;20220;-73
2023/11/21 02:00:38;;;;;;;2.20;2.00;;;4.80;92.10;;;;;;5052404;28;20193;-74
2023/11/21 02:03:06;;;;;;;2.70;2.13;;;4.80;92.20;;;;;;5063403;28;20206;-73
2023/11/21 02:05:34;;;;;;;3.57;2.47;;;4.80;92.20;;;;;;5053428;28;20236;-73
2023/11/21 02:08:02;;;;;;;3.10;2.80;;;4.80;92.10;;;;;;5050785;28;20229;-73
2023/11/21 02:10:32;;;;;;;3.63;2.90;;;4.80;91.70;;;;;;5075091;28;20214;-74
2023/11/21 02:13:01;;;;;;;5.07;2.60;;;4.80;91.50;;;;;;5052855;28;20202;-73
2023/11/21 02:15:28;;;;;;;4.17;3.03;;;4.80;91.50;;;;;;5067392;28;20243;-73
2023/11/21 02:17:58;;;;;;;3.93;2.43;;;4.80;91.30;;;;;;5050764;28;20194;-73
2023/11/21 02:20:26;;;;;;;3.33;2.50;;;4.70;91.40;;;;;;5049816;28;20217;-74
2023/11/21 02:22:57;;;;;;;2.97;2.37;;;4.70;91.10;;;;;;5069585;28;20198;-73
2023/11/21 02:25:25;;;;;;;3.50;2.60;;;4.70;91.20;;;;;;5072813;28;20595;-74
2023/11/21 02:27:54;;;;;;;2.90;2.67;;;4.80;91.20;;;;;;5053062;28;20212;-73
2023/11/21 02:30:21;;;;;;;2.70;2.43;;;4.80;91.10;;;;;;5068860;28;20277;-73
2023/11/21 02:32:49;;;;;;;3.13;2.30;;;4.80;91.00;;;;;;5052249;28;20871;-74
2023/11/21 02:35:16;;;;;;;3.67;2.73;;;4.80;90.90;;;;;;5053052;28;20663;-73
2023/11/21 02:37:43;;;;;;;2.97;2.50;;;4.80;90.60;;;;;;5072051;28;20236;-74
2023/11/21 02:40:13;;;;;;;5.07;2.30;;;4.70;90.80;;;;;;5072685;28;20201;-74
2023/11/21 02:42:40;;;;;;;2.90;2.13;;;4.80;90.90;;;;;;5064065;28;20225;-75
2023/11/21 02:45:09;;;;;;;4.47;2.50;;;4.80;90.80;;;;;;5054383;28;20645;-74
2023/11/21 02:47:36;;;;;;;2.50;2.30;;;4.80;90.80;;;;;;5052597;28;20232;-74
2023/11/21 02:50:03;;;;;;;2.77;1.93;;;4.80;90.80;;;;;;5068481;28;20269;-73
2023/11/21 02:52:33;;;;;;;4.83;2.70;;;4.80;90.90;;;;;;5052432;28;20565;-74
2023/11/21 02:55:00;;;;;;;3.10;2.63;;;4.80;91.00;;;;;;5053910;28;20189;-75
2023/11/21 02:57:28;;;;;;;2.57;2.20;;;4.80;91.10;;;;;;5050577;28;20221;-74
2023/11/21 02:59:55;;;;;;;4.13;2.57;;;4.90;91.30;;;;;;5068280;28;20591;-74
2023/11/21 03:02:23;;;;;;;2.87;2.10;;;4.80;91.30;;;;;;5068226;28;20195;-74
2023/11/21 03:04:50;;;;;;;2.63;2.20;;;4.90;91.40;;;;;;5068493;28;20312;-74
2023/11/21 03:07:19;;;;;;;2.20;2.00;;;4.90;91.40;;;;;;5056129;28;20267;-74
2023/11/21 03:09:46;;;;;;;2.20;2.00;;;4.90;91.40;;;;;;5067419;28;20189;-74
2023/11/21 03:12:13;;;;;;;2.27;1.80;;;5.00;91.50;;;;;;5058838;28;20199;-74
2023/11/21 03:14:41;;;;;;;1.90;1.57;;;5.00;91.40;;;;;;5070470;28;20553;-75
2023/11/21 03:17:08;;;;;;;1.83;1.60;;;5.00;91.50;;;;;;5066505;28;20195;-74
2023/11/21 03:19:35;;;;;;;1.97;1.73;;;5.00;91.50;;;;;;5051890;28;20264;-74
2023/11/21 03:22:04;;;;;;;2.30;1.63;;;4.90;91.30;;;;;;5071319;28;20557;-74
2023/11/21 03:24:31;;;;;;;2.00;1.80;;;4.90;91.40;;;;;;5049897;28;21573;-74
2023/11/21 03:26:58;;;;;;;2.33;2.10;;;4.90;91.40;;;;;;5052781;28;20550;-74
2023/11/21 03:29:26;;;;;;;3.00;2.37;;;4.90;91.40;;;;;;5050342;28;20836;-73
2023/11/21 03:31:55;;;;;;;2.50;2.20;;;4.90;91.20;;;;;;5045942;28;20600;-73
2023/11/21 03:34:24;;;;;;;2.70;2.43;;;4.90;91.30;;;;;;5070583;28;20194;-73
2023/11/21 03:36:51;;;;;;;3.50;2.40;;;4.90;90.90;;;;;;5067941;28;20612;-73
2023/11/21 03:39:20;;;;;;;2.80;2.13;;;4.90;91.10;;;;;;5052275;28;20207;-73
2023/11/21 03:41:47;;;;;;;2.57;1.90;;;4.90;91.10;;;;;;5070535;28;20195;-73
2023/11/21 03:44:15;;;;;;;2.23;1.60;;;4.90;91.20;;;;;;5049296;28;20567;-73
2023/11/21 03:46:42;;;;;;;3.00;2.17;;;4.90;91.20;;;;;;5069621;28;20703;-74
2023/11/21 03:49:12;;;;;;;3.00;2.70;;;4.90;91.10;;;;;;5052574;28;20658;-74
2023/11/21 03:51:39;;;;;;;2.90;2.70;;;4.90;91.00;;;;;;5066495;28;20400;-74
2023/11/21 03:54:07;;;;;;;2.93;2.57;;;4.90;90.80;;;;;;5052717;28;20639;-74
2023/11/21 03:56:34;;;;;;;4.80;2.80;;;4.90;90.70;;;;;;5068943;28;20198;-73
2023/11/21 03:59:01;;;;;;;2.40;2.20;;;4.80;90.70;;;;;;5068644;28;20569;-73
2023/11/21 04:01:28;;;;;;;2.37;2.17;;;4.80;90.90;;;;;;5053250;28;20267;-73
2023/11/21 04:03:57;;;;;;;2.63;2.37;;;4.80;90.90;;;;;;5060114;28;20826;-73
2023/11/21 04:06:25;;;;;;;2.57;2.37;;;4.80;90.90;;;;;;5070128;28;20198;-73
2023/11/21 04:08:52;;;;;;;3.23;2.27;;;4.80;90.80;;;;;;5070761;28;20235;-73
2023/11/21 04:11:19;;;;;;;6.57;2.60;;;4.80;90.90;;;;;;5063935;28;20189;-73
2023/11/21 04:13:47;;;;;;;3.63;2.30;;;4.80;90.80;;;;;;5062240;28;20198;-73
2023/11/21 04:16:14;;;;;;;2.23;2.03;;;4.80;90.70;;;;;;5069191;28;20279;-73
2023/11/21 04:18:41;;;;;;;2.07;1.90;;;4.80;90.80;;;;;;5048843;28;20717;-72
2023/11/21 04:21:08;;;;;;;3.13;1.77;;;4.80;90.90;;;;;;5070114;28;20255;-72
2023/11/21 04:23:37;;;;;;;3.43;2.60;;;4.80;91.00;;;;;;5070406;28;20194;-73
2023/11/21 04:26:04;;;;;;;2.87;2.57;;;4.80;90.60;;;;;;5066801;28;20195;-74
2023/11/21 04:28:31;;;;;;;3.00;2.23;;;4.80;90.60;;;;;;5068720;28;20198;-74
2023/11/21 04:30:58;;;;;;;3.23;2.40;;;4.70;90.70;;;;;;5069218;28;20205;-73
2023/11/21 04:33:25;;;;;;;2.67;2.47;;;4.70;90.70;;;;;;5049934;28;20203;-74
2023/11/21 04:35:52;;;;;;;2.57;2.20;;;4.80;90.70;;;;;;5062814;28;20230;-74
2023/11/21 04:38:20;;;;;;;4.37;2.80;;;4.80;90.70;;;;;;5049584;28;20513;-74
2023/11/21 04:40:48;;;;;;;2.73;2.20;;;4.80;90.70;;;;;;5051239;28;20346;-73
2023/11/21 04:43:15;;;;;;;3.50;2.13;;;4.80;90.80;;;;;;5060677;28;20189;-74
2023/11/21 04:45:42;;;;;;;3.50;2.50;;;4.90;90.90;;;;;;5048558;28;20226;-74
2023/11/21 04:48:09;;;;;;;2.57;2.17;;;4.90;90.90;;;;;;5068695;28;20722;-74
2023/11/21 04:50:37;;;;;;;4.37;2.17;;;4.90;91.00;;;;;;5069901;28;20204;-74
2023/11/21 04:53:05;;;;;;;2.73;1.90;;;4.90;91.20;;;;;;5065662;28;20661;-74
2023/11/21 04:55:32;;;;;;;2.97;2.17;;;4.90;91.10;;;;;;5069830;28;20240;-74
2023/11/21 04:58:00;;;;;;;2.87;2.23;;;4.90;91.20;;;;;;5069245;28;20285;-74
2023/11/21 05:00:27;;;;;;;2.10;1.90;;;4.90;91.30;;;;;;5067092;28;20704;-74
2023/11/21 05:02:54;;;;;;;2.17;1.97;;;4.80;91.40;;;;;;5067437;28;20263;-74
2023/11/21 05:05:22;;;;;;;2.33;2.10;;;4.80;91.50;;;;;;5052234;28;20275;-74
2023/11/21 05:07:49;;;;;;;2.03;1.87;;;4.90;91.60;;;;;;5065517;28;20194;-74
2023/11/21 05:10:17;;;;;;;2.43;2.10;;;4.90;91.70;;;;;;5061215;28;20194;-73
2023/11/21 05:12:44;;;;;;;2.67;1.90;;;4.90;91.80;;;;;;5065868;28;20635;-74
2023/11/21 05:15:17;;;;;;;7.10;2.60;;;4.90;91.90;;;;;;5049471;28;20220;-73
2023/11/21 05:17:45;;;;;;;3.40;2.43;;;4.90;92.10;;;;;;5068933;28;20194;-74
2023/11/21 05:20:14;;;;;;;3.27;2.57;;;4.90;92.20;;;;;;5066770;28;20611;-73
2023/11/21 05:22:41;;;;;;;4.60;2.90;;;4.90;92.30;;;;;;5067562;28;20210;-73
2023/11/21 05:25:09;;;;;;;4.53;2.90;;;4.90;92.40;;;;;;5069956;28;20241;-73
2023/11/21 05:27:36;;;;;;;3.47;2.63;;;5.00;92.50;;;;;;5061175;28;20198;-73
2023/11/21 05:30:05;;;;;;;3.77;2.53;;;5.00;92.50;;;;;;5070120;28;20194;-73
2023/11/21 05:32:34;;;;;;;5.23;3.57;;;4.90;92.50;;;;;;5054626;28;20222;-74
2023/11/21 05:35:01;;;;;;;3.60;2.73;;;4.90;92.70;;;;;;5065719;28;20194;-73
2023/11/21 05:37:28;;;;;;;4.40;2.67;;;4.90;92.80;;;;;;5072401;28;20239;-73
2023/11/21 05:39:56;;;;;;;3.20;2.90;;;4.90;92.90;;;;;;5055318;28;20207;-73
2023/11/21 05:42:24;;;;;;;3.80;3.30;;;4.90;92.80;;;;;;5070959;28;20263;-73
2023/11/21 05:44:52;;;;;;;3.57;3.03;;;5.00;92.80;;;;;;5074131;28;20210;-73
2023/11/21 05:47:19;;;;;;;4.70;3.20;;;5.00;92.80;;;;;;5054828;28;20626;-72
2023/11/21 05:49:50;;;;;;;3.37;2.60;;;5.00;92.80;;;;;;5072361;28;20203;-72
2023/11/21 05:52:17;;;;;;;3.80;2.70;;;4.90;92.80;;;;;;5065246;28;20224;-73
2023/11/21 05:54:45;;;;;;;3.03;2.53;;;5.00;92.80;;;;;;5053140;28;20197;-74
2023/11/21 05:57:12;;;;;;;3.53;2.53;;;5.00;92.80;;;;;;5072629;28;20197;-72
2023/11/21 05:59:39;;;;;;;3.33;2.50;;;5.00;92.80;;;;;;5073198;28;20308;-72
2023/11/21 06:02:07;;;;;;;3.40;2.70;;;5.00;92.90;;;;;;5069703;28;20284;-73
2023/11/21 06:04:34;;;;;;;3.83;2.80;;;5.00;92.90;;;;;;5072891;28;20288;-72
2023/11/21 06:07:03;;;;;;;4.77;2.87;;;5.00;92.90;;;;;;5073302;28;20227;-73
2023/11/21 06:09:30;;;;;;;2.10;2.00;;;5.00;92.90;;;;;;5053303;28;20549;-73
2023/11/21 06:11:58;;;;;;;3.07;2.77;;;4.90;92.90;;;;;;5054604;28;20549;-73
2023/11/21 06:14:25;;;;;;;4.07;2.67;;;4.90;92.90;;;;;;5071776;28;20201;-72
2023/11/21 06:16:52;;;;;;;4.00;3.00;;;4.90;92.90;;;;;;5068467;28;20199;-73
2023/11/21 06:19:19;;;;;;;4.13;3.03;;;4.90;93.00;;;;;;5072436;28;20595;-72
2023/11/21 06:21:47;;;;;;;3.07;2.30;;;4.90;92.90;;;;;;5070839;28;20189;-72
2023/11/21 06:24:16;;;;;;;2.90;2.57;;;4.90;93.00;;;;;;5069466;28;20201;-73
2023/11/21 06:26:45;;;;;;;3.60;2.50;;;4.90;93.40;;;;;;5055078;28;20198;-73
2023/11/21 06:29:12;;;;;;;3.07;2.73;;;4.90;93.10;;;;;;5070403;28;20257;-73
2023/11/21 06:31:42;;;;;;;5.23;3.00;;;4.90;93.20;;;;;;5064356;28;20201;-73
2023/11/21 06:34:12;;;;;;;3.90;3.00;;;4.90;93.20;;;;;;5071179;28;20203;-73
2023/11/21 06:36:39;;;;;;;3.47;3.17;;;4.90;93.20;;;;;;5048072;28;20201;-71
2023/11/21 06:39:08;;;;;;;3.47;2.90;;;4.90;93.30;;;;;;5072869;28;20259;-70
2023/11/21 06:41:38;;;;;;;3.77;2.73;;;5.00;93.30;;;;;;5054275;28;20210;-71
2023/11/21 06:44:05;;;;;;;3.63;2.60;;;4.90;93.30;;;;;;5067626;28;20202;-72
2023/11/21 06:46:33;;;;;;;3.60;2.87;;;4.90;93.30;;;;;;5083010;28;20655;-71
2023/11/21 06:49:00;;;;;;;4.47;2.67;;;4.90;93.30;;;;;;5072216;28;20276;-72
2023/11/21 06:51:27;;;;;;;5.33;3.63;;;4.90;93.60;;;;;;5077705;28;20533;-72
2023/11/21 06:53:54;;;;;;;4.43;3.40;;;4.90;93.20;;;;;;5055689;28;20204;-73
2023/11/21 06:56:21;;;;;;;3.90;2.80;;;4.90;93.10;;;;;;5049314;28;20202;-73
2023/11/21 06:58:49;;;;;;;3.77;3.40;;;4.90;93.10;;;;;;5053102;28;20206;-73
2023/11/21 07:01:17;;;;;;;3.20;2.50;;;4.90;93.10;;;;;;5052584;28;20231;-72
2023/11/21 07:03:44;;;;;;;3.90;2.80;;;4.90;93.20;;;;;;5054311;28;20589;-69
2023/11/21 07:06:11;;;;;;;4.40;2.60;;;4.90;93.20;;;;;;5069391;28;20212;-71
2023/11/21 07:08:38;;;;;;;9.37;3.30;;;4.90;93.20;;;;;;5069848;28;20193;-70
2023/11/21 07:11:05;;;;;;;4.73;3.30;;;4.90;93.00;;;;;;5066197;28;20686;-70
2023/11/21 07:13:32;;;;;;;5.87;2.93;;;4.90;92.90;;;;;;5069374;28;20550;-70
2023/11/21 07:16:01;;;;;;;3.43;2.67;;;4.90;93.00;;;;;;5069311;28;20267;-70
2023/11/21 07:18:28;;;;;;;3.00;2.70;;;4.90;93.00;;;;;;5065710;28;20197;-71
2023/11/21 07:20:55;;;;;;;4.90;2.87;;;4.80;93.00;;;;;;5066027;28;20564;-71
2023/11/21 07:23:23;;;;;;;4.27;3.17;;;4.80;93.10;;;;;;5065978;28;20196;-71
2023/11/21 07:25:50;;;;;;;6.83;3.80;;;4.80;93.20;;;;;;5067714;28;20241;-70
2023/11/21 07:28:17;;;;;;;3.67;3.03;;;4.90;93.30;;;;;;5049726;28;20205;-71
2023/11/21 07:30:44;;;;;;;4.13;3.17;;;4.90;93.40;;;;;;5067315;28;20205;-71
2023/11/21 07:33:13;;;;;;;4.23;2.90;;;4.90;93.80;;;;;;5039429;28;20673;-71
2023/11/21 07:35:40;;;;;;;3.37;2.07;;;5.00;93.50;;;;;;5070209;28;20620;-70
2023/11/21 07:38:07;;;;;;;3.23;2.70;;;5.00;93.40;;;;;;5048466;28;20205;-70
2023/11/21 07:40:34;;;;;;;3.13;2.73;;;5.00;93.40;;;;;;5064509;28;20303;-70
2023/11/21 07:43:01;;;;;;;3.93;2.93;;;5.10;93.40;;;;;;5068541;28;20201;-71
2023/11/21 07:45:29;;;;;;;3.57;2.93;;;5.10;93.40;;;;;;5054666;28;20207;-70
2023/11/21 07:47:56;;;;;;;4.63;2.80;;;5.20;93.40;;;;;;5061221;28;20201;-70
2023/11/21 07:50:25;;;;;;;3.90;2.60;;;5.30;93.30;;;;;;5067680;28;20725;-70
2023/11/21 07:52:54;;;;;;;4.43;2.57;;;5.40;93.20;;;;;;5049357;28;20674;-71
2023/11/21 07:55:21;;;;;;;5.67;2.73;;;5.60;93.30;;;;;;5068240;28;20640;-71
2023/11/21 07:57:48;;;;;;;3.83;2.43;;;5.70;93.20;;;;;;5050429;28;20214;-71
2023/11/21 08:00:16;;;;;;;3.43;2.83;;;5.90;92.90;;;;;;5066488;28;20256;-71
2023/11/21 08:02:42;;;;;;;5.40;2.90;;;5.80;92.80;;;;;;5067772;28;20201;-70
2023/11/21 08:05:10;;;;;;;5.50;2.43;;;5.80;92.60;;;;;;5048186;28;20709;-70
2023/11/21 08:07:39;;;;;;;3.40;2.83;;;5.80;92.80;;;;;;5049624;28;20689;-70
2023/11/21 08:10:08;;;;;;;3.30;2.70;;;5.70;92.90;;;;;;5069021;28;20277;-71
2023/11/21 08:12:35;;;;;;;7.17;4.10;;;5.70;93.00;;;;;;5063288;28;20229;-70
2023/11/21 08:15:03;;;;;;;6.33;4.03;;;5.80;92.90;;;;;;5069400;28;20616;-71
2023/11/21 08:17:32;;;;;;;7.57;4.20;;;5.80;92.30;;;;;;5067711;28;20271;-70
2023/11/21 08:19:59;;;;;;;4.33;3.20;;;5.80;92.30;;;;;;5061567;28;20198;-71
2023/11/21 08:22:26;;;;;;;4.17;3.13;;;5.80;92.30;;;;;;5051057;28;20207;-70
2023/11/21 08:24:55;;;;;;;4.00;3.70;;;5.90;92.00;;;;;;5054290;28;20254;-71
2023/11/21 08:27:22;;;;;;;4.23;3.50;;;5.90;91.50;;;;;;5066447;28;20672;-71
2023/11/21 08:29:50;;;;;;;4.40;3.57;;;5.80;91.50;;;;;;5062521;28;20196;-70
2023/11/21 08:32:17;;;;;;;3.97;2.90;;;5.80;91.50;;;;;;5068104;28;20198;-70
2023/11/21 08:34:45;;;;;;;3.10;2.13;;;5.80;91.40;;;;;;5066253;28;20687;-71
2023/11/21 08:37:12;;;;;;;3.03;2.60;;;5.80;91.40;;;;;;5049593;28;20633;-71
2023/11/21 08:39:41;;;;;;;2.53;2.00;;;5.80;91.30;;;;;;5044489;28;20210;-71
2023/11/21 08:42:11;;;;;;;19.83;7.53;;;5.90;91.50;;;;;;5066063;28;20323;-71
2023/11/21 08:44:39;;;;;;;21.13;7.97;;;6.00;91.60;;;;;;5067574;28;20206;-71
2023/11/21 08:47:07;;;;;;;13.63;6.30;;;6.00;91.80;;;;;;5071463;28;20234;-71
2023/11/21 08:49:34;;;;;;;8.37;4.67;;;6.20;92.00;;;;;;5066214;28;20210;-71
2023/11/21 08:52:01;;;;;;;4.50;3.70;;;6.30;91.90;;;;;;5050236;28;20199;-71
2023/11/21 08:54:28;;;;;;;3.10;2.80;;;6.30;91.80;;;;;;5047432;28;20536;-71
2023/11/21 08:56:57;;;;;;;2.40;2.20;;;6.40;91.60;;;;;;5067372;28;20620;-71
2023/11/21 08:59:26;;;;;;;2.43;2.10;;;6.30;91.50;;;;;;5075731;28;20254;-72
2023/11/21 09:01:53;;;;;;;3.90;2.63;;;6.40;91.60;;;;;;5057706;28;20241;-71
2023/11/21 09:04:20;;;;;;;6.13;2.73;;;6.40;91.20;;;;;;5048992;28;20242;-71
2023/11/21 09:06:47;;;;;;;3.50;2.30;;;6.40;90.90;;;;;;5070428;28;20215;-71
2023/11/21 09:09:14;;;;;;;4.33;2.33;;;6.40;90.70;;;;;;5069759;28;20240;-71
2023/11/21 09:11:44;;;;;;;10.33;4.03;;;6.40;90.40;;;;;;5072035;28;20604;-71
2023/11/21 09:14:12;;;;;;;7.03;3.70;;;6.40;90.10;;;;;;5071797;28;20211;-71
2023/11/21 09:16:41;;;;;;;6.47;3.67;;;6.40;89.70;;;;;;5066012;28;20192;-71
2023/11/21 09:19:08;;;;;;;6.80;3.50;;;6.50;88.90;;;;;;5052063;28;20196;-71
2023/11/21 09:21:35;;;;;;;3.93;2.87;;;6.50;88.50;;;;;;5069456;28;20606;-71
2023/11/21 09:24:03;;;;;;;2.73;2.27;;;6.50;88.40;;;;;;5069491;28;20203;-71
2023/11/21 09:26:30;;;;;;;5.07;4.07;;;6.50;87.90;;;;;;5053935;28;20718;-71
2023/11/21 09:28:57;;;;;;;3.37;3.07;;;6.40;87.30;;;;;;5046346;28;20254;-70
2023/11/21 09:31:24;;;;;;;2.00;1.90;;;6.40;86.60;;;;;;5070528;28;20257;-71
2023/11/21 09:33:53;;;;;;;1.97;1.60;;;6.40;86.80;;;;;;5053376;28;20207;-70
2023/11/21 09:36:22;;;;;;;6.53;1.80;;;6.40;85.60;;;;;;5068422;28;20651;-71
2023/11/21 09:38:49;;;;;;;3.87;2.03;;;6.40;85.40;;;;;;5071899;28;20659;-70
2023/11/21 09:41:24;;;;;;;1.77;1.67;;;6.40;85.30;;;;;;5053135;28;20247;-71
2023/11/21 09:43:55;;;;;;;3.23;2.57;;;6.50;85.90;;;;;;5053571;28;20653;-71
2023/11/21 09:46:25;;;;;;;5.90;2.40;;;6.50;85.30;;;;;;5070608;28;20686;-70
2023/11/21 09:49:00;;;;;;;4.47;2.50;;;6.60;85.20;;;;;;5071001;28;20670;-72
2023/11/21 09:51:33;;;;;;;2.43;2.00;;;6.70;84.10;;;;;;5056661;28;20253;-72
2023/11/21 09:54:06;;;;;;;3.13;2.03;;;6.90;84.00;;;;;;5070670;28;20193;-71
2023/11/21 09:56:33;;;;;;;16.10;6.07;;;7.30;83.40;;;;;;5053394;28;20197;-72
2023/11/21 09:59:07;;;;;;;9.67;4.33;;;7.50;82.00;;;;;;5053775;28;20208;-71
2023/11/21 10:01:35;;;;;;;5.03;2.10;;;7.50;81.80;;;;;;5069620;28;20201;-72
2023/11/21 10:04:05;;;;;;;2.50;1.97;;;7.30;81.80;;;;;;5071505;28;20232;-72
2023/11/21 10:06:33;;;;;;;3.10;2.03;;;7.20;81.90;;;;;;5067904;28;20297;-71
2023/11/21 10:09:02;;;;;;;2.17;1.97;;;7.10;82.00;;;;;;5071047;28;20212;-71
2023/11/21 10:11:31;;;;;;;2.83;2.57;;;7.00;81.60;;;;;;5070529;28;20208;-71
2023/11/21 10:14:00;;;;;;;3.07;2.10;;;6.90;80.90;;;;;;5071208;28;20189;-71
2023/11/21 10:16:28;;;;;;;3.37;2.67;;;6.90;81.20;;;;;;5067349;28;20220;-73
2023/11/21 10:18:57;;;;;;;2.63;2.13;;;6.80;81.40;;;;;;5070510;28;20550;-72
2023/11/21 10:21:25;;;;;;;2.47;2.03;;;6.80;82.10;;;;;;5068794;28;20204;-72
2023/11/21 10:23:54;;;;;;;2.90;2.10;;;6.80;82.40;;;;;;5049849;28;21098;-71
2023/11/21 10:26:23;;;;;;;2.90;1.90;;;6.80;81.10;;;;;;5052067;28;20214;-71
2023/11/21 10:28:58;;;;;;;2.43;2.23;;;6.80;81.20;;;;;;5069011;28;20622;-71
2023/11/21 10:31:26;;;;;;;2.67;2.33;;;6.80;81.20;;;;;;5061170;28;20204;-70
2023/11/21 10:33:53;;;;;;;5.27;2.60;;;6.80;81.30;;;;;;5050720;28;20193;-72
2023/11/21 10:36:28;;;;;;;3.93;2.67;;;6.80;82.00;;;;;;5069201;28;20223;-71
2023/11/21 10:38:57;;;;;;;4.83;2.93;;;6.80;80.40;;;;;;5052159;28;20192;-71
2023/11/21 10:41:25;;;;;;;2.57;2.00;;;6.70;80.30;;;;;;5055731;28;20597;-70
2023/11/21 10:43:56;;;;;;;6.10;2.67;;;6.70;80.30;;;;;;5060681;28;20205;-71
2023/11/21 10:46:25;;;;;;;7.77;4.60;;;6.70;80.10;;;;;;5053080;28;20314;-71
2023/11/21 10:48:56;;;;;;;6.07;3.27;;;6.60;79.50;;;;;;5069994;28;20204;-71
2023/11/21 10:51:24;;;;;;;2.67;2.30;;;6.60;79.30;;;;;;5055235;28;20200;-70
2023/11/21 10:53:52;;;;;;;2.50;1.87;;;6.60;79.50;;;;;;5068955;28;20283;-72
2023/11/21 10:56:21;;;;;;;3.03;1.70;;;6.60;79.50;;;;;;5069266;28;20656;-71
2023/11/21 10:58:50;;;;;;;2.83;1.57;;;6.60;79.50;;;;;;5087536;28;20238;-69
2023/11/21 11:01:21;;;;;;;2.60;1.80;;;6.50;79.80;;;;;;5095579;28;20177;-70
2023/11/21 11:03:49;;;;;;;2.23;2.03;;;6.60;80.20;;;;;;5095338;28;20217;-70
2023/11/21 11:06:17;;;;;;;2.00;1.77;;;6.60;79.70;;;;;;5057390;28;20302;-70
2023/11/21 11:08:45;;;;;;;2.83;1.63;;;6.60;79.40;;;;;;5052528;28;20762;-70
2023/11/21 11:11:14;;;;;;;2.47;1.90;;;6.60;79.10;;;;;;5049443;28;20212;-72
2023/11/21 11:13:45;;;;;;;1.80;1.70;;;6.60;79.80;;;;;;5064381;28;20665;-71
2023/11/21 11:16:17;;;;;;;2.50;1.70;;;6.60;79.10;;;;;;5069165;28;20330;-72
2023/11/21 11:18:45;;;;;;;2.83;2.10;;;6.60;79.30;;;;;;5070327;28;20603;-71
2023/11/21 11:21:32;;;;;;;1.93;1.77;;;6.60;79.50;;;;;;5069317;28;20243;-69
2023/11/21 11:24:21;;;;;;;3.63;1.80;;;6.50;80.50;;;;;;5052717;28;20222;-71
2023/11/21 11:26:57;;;;;;;1.90;1.80;;;6.50;79.80;;;;;;5069592;28;20623;-70
2023/11/21 11:29:32;;;;;;;3.53;1.80;;;6.60;79.70;;;;;;5047922;28;20640;-71
2023/11/21 11:32:09;;;;;;;2.43;2.00;;;6.60;80.00;;;;;;5066536;28;20659;-71
2023/11/21 11:34:42;;;;;;;3.77;1.80;;;6.60;79.30;;;;;;5062863;28;20189;-70
2023/11/21 11:37:10;;;;;;;1.70;1.60;;;6.60;79.20;;;;;;5069725;28;20593;-71
2023/11/21 11:39:40;;;;;;;1.70;1.60;;;6.60;79.30;;;;;;5070025;28;20196;-71
2023/11/21 11:42:16;;;;;;;1.80;1.70;;;6.60;79.60;;;;;;5069839;28;20221;-71
2023/11/21 11:44:56;;;;;;;2.17;1.87;;;6.60;79.70;;;;;;5051734;28;20196;-71
2023/11/21 11:47:28;;;;;;;2.07;1.67;;;6.60;79.40;;;;;;5065249;28;20232;-71
2023/11/21 11:49:59;;;;;;;2.20;1.80;;;6.60;79.50;;;;;;5052102;28;20300;-71
2023/11/21 11:52:42;;;;;;;1.93;1.60;;;6.60;79.60;;;;;;5069491;28;20190;-71
2023/11/21 11:55:11;;;;;;;2.57;1.73;;;6.60;79.60;;;;;;5051098;28;20194;-71
2023/11/21 11:57:40;;;;;;;2.57;2.00;;;6.50;79.10;;;;;;5067456;28;20265;-71
2023/11/21 12:00:16;;;;;;;2.67;1.70;;;6.40;79.30;;;;;;5046796;28;20201;-71
2023/11/21 12:02:45;;;;;;;2.03;1.40;;;6.40;79.40;;;;;;5041508;28;20245;-71
2023/11/21 12:05:14;;;;;;;2.97;1.80;;;6.40;79.80;;;;;;5069481;28;20298;-70
2023/11/21 12:07:45;;;;;;;2.80;2.10;;;6.40;80.10;;;;;;5069157;28;20281;-70
2023/11/21 12:10:17;;;;;;;3.90;1.60;;;6.40;79.70;;;;;;5067146;28;20207;-71
2023/11/21 12:12:50;;;;;;;4.30;1.83;;;6.30;80.30;;;;;;5054080;28;20197;-70
2023/11/21 12:15:18;;;;;;;2.27;1.90;;;6.30;79.50;;;;;;5068800;28;20269;-70
2023/11/21 12:17:46;;;;;;;2.30;1.70;;;6.40;79.40;;;;;;5067951;28;20189;-70
2023/11/21 12:20:18;;;;;;;2.27;1.70;;;6.30;79.00;;;;;;5070100;28;20205;-71
2023/11/21 12:22:48;;;;;;;3.00;2.00;;;6.30;79.30;;;;;;5052611;28;20194;-70
2023/11/21 12:25:18;;;;;;;2.90;2.07;;;6.30;79.40;;;;;;5069218;28;20297;-71
2023/11/21 12:27:46;;;;;;;2.70;1.87;;;6.30;79.50;;;;;;5067847;28;20231;-70
2023/11/21 12:30:15;;;;;;;2.10;1.70;;;6.20;79.60;;;;;;5068735;28;20208;-70
2023/11/21 12:32:43;;;;;;;1.57;1.37;;;6.20;79.60;;;;;;5049943;28;20203;-72
2023/11/21 12:35:11;;;;;;;2.17;1.70;;;6.20;79.70;;;;;;5068994;28;20677;-71
2023/11/21 12:37:39;;;;;;;2.50;2.07;;;6.20;79.80;;;;;;5068998;28;20223;-71
2023/11/21 12:40:11;;;;;;;2.60;2.13;;;6.20;79.80;;;;;;5068286;28;20759;-70
2023/11/21 12:42:39;;;;;;;2.20;2.00;;;6.30;79.40;;;;;;5065784;28;20196;-71
2023/11/21 12:45:25;;;;;;;3.03;2.30;;;6.20;78.90;;;;;;5068295;28;20192;-71
2023/11/21 12:47:56;;;;;;;3.23;2.03;;;6.20;79.00;;;;;;5056273;28;20215;-70
2023/11/21 12:50:28;;;;;;;2.23;1.80;;;6.20;79.10;;;;;;5051569;28;20205;-70
2023/11/21 12:52:59;;;;;;;3.10;1.97;;;6.20;79.40;;;;;;5041379;28;20590;-72
2023/11/21 12:55:26;;;;;;;2.17;1.73;;;6.20;79.60;;;;;;5057196;28;20247;-70
2023/11/21 12:57:55;;;;;;;2.40;1.80;;;6.20;79.80;;;;;;5065421;28;20214;-71
2023/11/21 13:00:36;;;;;;;2.70;2.00;;;6.20;79.80;;;;;;5066760;28;20279;-70
2023/11/21 13:03:04;;;;;;;1.80;1.70;;;6.20;79.50;;;;;;5050313;28;20305;-71
2023/11/21 13:05:33;;;;;;;1.53;1.40;;;6.20;79.70;;;;;;5050593;28;20248;-72